sensor_id;sensor_type;location;lat;lon;timestamp;P1;durP1;ratioP1;P2;durP2;ratioP2
2049;SDS011;8478;49.208;8.806;2022-12-07T00:01:41;16.63;;;15.17;;
2049;SDS011;8478;49.208;8.806;2022-12-07T00:04:09;10.83;;;9.93;;
2049;SDS011;8478;49.208;8.806;2022-12-07T00:06:38;10.93;;;10.00;;
2049;SDS011;8478;49.208;8.806;2022-12-07T00:09:05;11.40;;;10.33;;
2049;SDS011;8478;49.208;8.806;2022-12-07T00:11:32;10.60;;;9.70;;
2049;SDS011;8478;49.208;8.806;2022-12-07T00:14:02;10.90;;;9.90;;
2049;SDS011;8478;49.208;8.806;2022-12-07T00:16:32;9.90;;;9.00;;
2049;SDS011;8478;49.208;8.806;2022-12-07T00:18:59;9.97;;;9.17;;
2049;SDS011;8478;49.208;8.806;2022-12-07T00:21:26;10.17;;;9.37;;
2049;SDS011;8478;49.208;8.806;2022-12-07T00:23:57;10.07;;;9.27;;
2049;SDS011;8478;49.208;8.806;2022-12-07T00:26:25;10.27;;;9.30;;
2049;SDS011;8478;49.208;8.806;2022-12-07T00:28:54;10.13;;;9.10;;
2049;SDS011;8478;49.208;8.806;2022-12-07T00:31:22;13.00;;;10.77;;
2049;SDS011;8478;49.208;8.806;2022-12-07T00:33:50;9.90;;;9.10;;
2049;SDS011;8478;49.208;8.806;2022-12-07T00:36:17;9.50;;;8.73;;
2049;SDS011;8478;49.208;8.806;2022-12-07T00:38:45;9.50;;;8.80;;
2049;SDS011;8478;49.208;8.806;2022-12-07T00:41:11;12.13;;;11.03;;
2049;SDS011;8478;49.208;8.806;2022-12-07T00:43:39;12.40;;;11.30;;
2049;SDS011;8478;49.208;8.806;2022-12-07T00:46:06;10.50;;;9.60;;
2049;SDS011;8478;49.208;8.806;2022-12-07T00:48:31;11.07;;;9.97;;
2049;SDS011;8478;49.208;8.806;2022-12-07T00:50:57;10.53;;;9.63;;
2049;SDS011;8478;49.208;8.806;2022-12-07T00:53:24;11.30;;;10.30;;
2049;SDS011;8478;49.208;8.806;2022-12-07T00:55:50;14.97;;;13.57;;
2049;SDS011;8478;49.208;8.806;2022-12-07T00:58:17;11.27;;;10.37;;
2049;SDS011;8478;49.208;8.806;2022-12-07T01:00:43;11.47;;;10.43;;
2049;SDS011;8478;49.208;8.806;2022-12-07T01:03:10;12.10;;;10.90;;
2049;SDS011;8478;49.208;8.806;2022-12-07T01:05:38;11.10;;;10.00;;
2049;SDS011;8478;49.208;8.806;2022-12-07T01:08:05;10.50;;;9.50;;
2049;SDS011;8478;49.208;8.806;2022-12-07T01:10:31;10.43;;;9.63;;
2049;SDS011;8478;49.208;8.806;2022-12-07T01:12:58;9.83;;;8.93;;
2049;SDS011;8478;49.208;8.806;2022-12-07T01:15:24;9.70;;;8.90;;
2049;SDS011;8478;49.208;8.806;2022-12-07T01:17:51;9.77;;;9.00;;
2049;SDS011;8478;49.208;8.806;2022-12-07T01:20:16;10.37;;;9.47;;
2049;SDS011;8478;49.208;8.806;2022-12-07T01:22:42;8.73;;;8.00;;
2049;SDS011;8478;49.208;8.806;2022-12-07T01:25:09;8.67;;;7.93;;
2049;SDS011;8478;49.208;8.806;2022-12-07T01:27:36;8.13;;;7.53;;
2049;SDS011;8478;49.208;8.806;2022-12-07T01:30:03;8.90;;;8.30;;
2049;SDS011;8478;49.208;8.806;2022-12-07T01:32:31;9.03;;;8.23;;
2049;SDS011;8478;49.208;8.806;2022-12-07T01:34:57;9.10;;;8.30;;
2049;SDS011;8478;49.208;8.806;2022-12-07T01:37:22;8.73;;;8.03;;
2049;SDS011;8478;49.208;8.806;2022-12-07T01:39:49;8.57;;;7.97;;
2049;SDS011;8478;49.208;8.806;2022-12-07T01:42:15;9.60;;;8.60;;
2049;SDS011;8478;49.208;8.806;2022-12-07T01:47:42;8.47;;;7.87;;
2049;SDS011;8478;49.208;8.806;2022-12-07T01:50:11;8.90;;;8.20;;
2049;SDS011;8478;49.208;8.806;2022-12-07T01:52:38;9.60;;;8.80;;
2049;SDS011;8478;49.208;8.806;2022-12-07T01:55:07;9.27;;;8.57;;
2049;SDS011;8478;49.208;8.806;2022-12-07T01:57:37;9.07;;;8.30;;
2049;SDS011;8478;49.208;8.806;2022-12-07T02:00:06;8.77;;;8.07;;
2049;SDS011;8478;49.208;8.806;2022-12-07T02:02:36;9.37;;;8.60;;
2049;SDS011;8478;49.208;8.806;2022-12-07T02:05:08;9.07;;;8.37;;
2049;SDS011;8478;49.208;8.806;2022-12-07T02:07:34;8.90;;;7.90;;
2049;SDS011;8478;49.208;8.806;2022-12-07T02:10:18;8.77;;;8.07;;
2049;SDS011;8478;49.208;8.806;2022-12-07T02:13:02;7.90;;;7.20;;
2049;SDS011;8478;49.208;8.806;2022-12-07T02:15:38;8.30;;;7.63;;
2049;SDS011;8478;49.208;8.806;2022-12-07T02:18:07;8.90;;;8.13;;
2049;SDS011;8478;49.208;8.806;2022-12-07T02:20:47;8.30;;;7.60;;
2049;SDS011;8478;49.208;8.806;2022-12-07T02:28:56;8.07;;;7.47;;
2049;SDS011;8478;49.208;8.806;2022-12-07T02:31:46;8.70;;;8.00;;
2049;SDS011;8478;49.208;8.806;2022-12-07T02:37:04;8.10;;;7.40;;
2049;SDS011;8478;49.208;8.806;2022-12-07T02:41:01;9.37;;;8.43;;
2049;SDS011;8478;49.208;8.806;2022-12-07T02:43:19;8.63;;;7.90;;
2049;SDS011;8478;49.208;8.806;2022-12-07T02:45:56;9.00;;;8.30;;
2049;SDS011;8478;49.208;8.806;2022-12-07T02:48:26;8.23;;;7.53;;
2049;SDS011;8478;49.208;8.806;2022-12-07T02:50:53;8.70;;;7.90;;
2049;SDS011;8478;49.208;8.806;2022-12-07T02:56:00;7.97;;;7.30;;
2049;SDS011;8478;49.208;8.806;2022-12-07T03:07:05;8.60;;;8.00;;
2049;SDS011;8478;49.208;8.806;2022-12-07T03:12:45;7.73;;;7.17;;
2049;SDS011;8478;49.208;8.806;2022-12-07T03:15:27;8.13;;;7.33;;
2049;SDS011;8478;49.208;8.806;2022-12-07T03:18:09;7.20;;;6.70;;
2049;SDS011;8478;49.208;8.806;2022-12-07T03:20:37;8.87;;;8.10;;
2049;SDS011;8478;49.208;8.806;2022-12-07T03:23:07;8.67;;;7.77;;
2049;SDS011;8478;49.208;8.806;2022-12-07T03:25:35;7.93;;;7.20;;
2049;SDS011;8478;49.208;8.806;2022-12-07T03:28:06;9.00;;;8.30;;
2049;SDS011;8478;49.208;8.806;2022-12-07T03:30:39;7.77;;;7.07;;
2049;SDS011;8478;49.208;8.806;2022-12-07T03:33:24;9.00;;;8.20;;
2049;SDS011;8478;49.208;8.806;2022-12-07T03:38:37;10.00;;;9.20;;
2049;SDS011;8478;49.208;8.806;2022-12-07T03:43:48;8.20;;;7.50;;
2049;SDS011;8478;49.208;8.806;2022-12-07T03:46:25;8.77;;;8.07;;
2049;SDS011;8478;49.208;8.806;2022-12-07T03:51:37;7.83;;;7.17;;
2049;SDS011;8478;49.208;8.806;2022-12-07T03:54:29;8.70;;;8.00;;
2049;SDS011;8478;49.208;8.806;2022-12-07T03:57:11;9.47;;;8.63;;
2049;SDS011;8478;49.208;8.806;2022-12-07T03:59:37;8.87;;;8.07;;
2049;SDS011;8478;49.208;8.806;2022-12-07T04:02:05;9.60;;;8.80;;
2049;SDS011;8478;49.208;8.806;2022-12-07T04:04:32;8.97;;;8.27;;
2049;SDS011;8478;49.208;8.806;2022-12-07T04:06:59;8.60;;;7.90;;
2049;SDS011;8478;49.208;8.806;2022-12-07T04:09:25;8.77;;;8.10;;
2049;SDS011;8478;49.208;8.806;2022-12-07T04:11:51;9.10;;;8.30;;
2049;SDS011;8478;49.208;8.806;2022-12-07T04:14:16;9.07;;;8.20;;
2049;SDS011;8478;49.208;8.806;2022-12-07T04:16:46;8.83;;;8.13;;
2049;SDS011;8478;49.208;8.806;2022-12-07T04:19:24;9.90;;;9.03;;
2049;SDS011;8478;49.208;8.806;2022-12-07T04:21:52;8.80;;;8.10;;
2049;SDS011;8478;49.208;8.806;2022-12-07T04:24:18;9.90;;;9.00;;
2049;SDS011;8478;49.208;8.806;2022-12-07T04:26:44;8.00;;;7.40;;
2049;SDS011;8478;49.208;8.806;2022-12-07T04:29:10;8.47;;;7.77;;
2049;SDS011;8478;49.208;8.806;2022-12-07T04:31:36;8.67;;;7.97;;
2049;SDS011;8478;49.208;8.806;2022-12-07T04:34:02;9.60;;;8.70;;
2049;SDS011;8478;49.208;8.806;2022-12-07T04:36:29;9.80;;;9.00;;
2049;SDS011;8478;49.208;8.806;2022-12-07T04:38:55;9.23;;;8.53;;
2049;SDS011;8478;49.208;8.806;2022-12-07T04:41:21;8.83;;;8.13;;
2049;SDS011;8478;49.208;8.806;2022-12-07T04:44:02;9.10;;;8.00;;
2049;SDS011;8478;49.208;8.806;2022-12-07T04:46:29;9.37;;;8.67;;
2049;SDS011;8478;49.208;8.806;2022-12-07T04:48:56;9.30;;;8.50;;
2049;SDS011;8478;49.208;8.806;2022-12-07T04:51:24;10.60;;;9.07;;
2049;SDS011;8478;49.208;8.806;2022-12-07T04:53:51;9.20;;;8.50;;
2049;SDS011;8478;49.208;8.806;2022-12-07T04:56:17;9.97;;;9.07;;
2049;SDS011;8478;49.208;8.806;2022-12-07T04:58:44;9.73;;;8.87;;
2049;SDS011;8478;49.208;8.806;2022-12-07T05:01:11;11.00;;;10.00;;
2049;SDS011;8478;49.208;8.806;2022-12-07T05:03:37;9.70;;;9.00;;
2049;SDS011;8478;49.208;8.806;2022-12-07T05:06:04;9.57;;;8.77;;
2049;SDS011;8478;49.208;8.806;2022-12-07T05:08:31;8.93;;;8.30;;
2049;SDS011;8478;49.208;8.806;2022-12-07T05:10:57;10.13;;;9.23;;
2049;SDS011;8478;49.208;8.806;2022-12-07T05:13:23;10.00;;;9.10;;
2049;SDS011;8478;49.208;8.806;2022-12-07T05:15:49;10.37;;;9.33;;
2049;SDS011;8478;49.208;8.806;2022-12-07T05:18:15;9.90;;;9.10;;
2049;SDS011;8478;49.208;8.806;2022-12-07T05:20:41;10.60;;;9.70;;
2049;SDS011;8478;49.208;8.806;2022-12-07T05:23:07;9.50;;;8.70;;
2049;SDS011;8478;49.208;8.806;2022-12-07T05:25:33;10.23;;;9.37;;
2049;SDS011;8478;49.208;8.806;2022-12-07T05:27:59;9.47;;;8.67;;
2049;SDS011;8478;49.208;8.806;2022-12-07T05:30:25;9.60;;;8.80;;
2049;SDS011;8478;49.208;8.806;2022-12-07T05:32:51;9.87;;;9.07;;
2049;SDS011;8478;49.208;8.806;2022-12-07T05:35:17;10.30;;;9.40;;
2049;SDS011;8478;49.208;8.806;2022-12-07T05:37:43;10.03;;;9.17;;
2049;SDS011;8478;49.208;8.806;2022-12-07T05:40:10;10.57;;;9.63;;
2049;SDS011;8478;49.208;8.806;2022-12-07T05:42:36;9.30;;;8.60;;
2049;SDS011;8478;49.208;8.806;2022-12-07T05:45:02;12.10;;;9.60;;
2049;SDS011;8478;49.208;8.806;2022-12-07T05:47:28;9.60;;;8.80;;
2049;SDS011;8478;49.208;8.806;2022-12-07T05:49:54;10.27;;;9.47;;
2049;SDS011;8478;49.208;8.806;2022-12-07T05:52:20;10.50;;;9.60;;
2049;SDS011;8478;49.208;8.806;2022-12-07T05:54:46;12.67;;;9.37;;
2049;SDS011;8478;49.208;8.806;2022-12-07T05:57:11;10.20;;;9.30;;
2049;SDS011;8478;49.208;8.806;2022-12-07T05:59:37;10.97;;;9.93;;
2049;SDS011;8478;49.208;8.806;2022-12-07T06:02:04;9.73;;;8.83;;
2049;SDS011;8478;49.208;8.806;2022-12-07T06:04:32;11.27;;;10.23;;
2049;SDS011;8478;49.208;8.806;2022-12-07T06:07:00;11.17;;;10.27;;
2049;SDS011;8478;49.208;8.806;2022-12-07T06:09:27;10.17;;;9.27;;
2049;SDS011;8478;49.208;8.806;2022-12-07T06:11:53;10.50;;;9.70;;
2049;SDS011;8478;49.208;8.806;2022-12-07T06:14:38;10.63;;;9.83;;
2049;SDS011;8478;49.208;8.806;2022-12-07T06:17:04;8.97;;;8.30;;
2049;SDS011;8478;49.208;8.806;2022-12-07T06:19:30;10.03;;;9.23;;
2049;SDS011;8478;49.208;8.806;2022-12-07T06:21:56;10.90;;;10.00;;
2049;SDS011;8478;49.208;8.806;2022-12-07T06:24:22;10.37;;;9.47;;
2049;SDS011;8478;49.208;8.806;2022-12-07T06:26:48;10.23;;;9.37;;
2049;SDS011;8478;49.208;8.806;2022-12-07T06:29:14;11.07;;;10.07;;
2049;SDS011;8478;49.208;8.806;2022-12-07T06:31:41;10.30;;;9.30;;
2049;SDS011;8478;49.208;8.806;2022-12-07T06:34:09;9.90;;;9.10;;
2049;SDS011;8478;49.208;8.806;2022-12-07T06:36:37;10.53;;;9.63;;
2049;SDS011;8478;49.208;8.806;2022-12-07T06:39:03;10.73;;;9.83;;
2049;SDS011;8478;49.208;8.806;2022-12-07T06:41:29;9.30;;;8.50;;
2049;SDS011;8478;49.208;8.806;2022-12-07T06:43:55;9.80;;;9.00;;
2049;SDS011;8478;49.208;8.806;2022-12-07T06:46:20;10.33;;;9.43;;
2049;SDS011;8478;49.208;8.806;2022-12-07T06:48:46;10.27;;;9.37;;
2049;SDS011;8478;49.208;8.806;2022-12-07T06:51:12;10.00;;;9.10;;
2049;SDS011;8478;49.208;8.806;2022-12-07T06:53:38;10.83;;;9.90;;
2049;SDS011;8478;49.208;8.806;2022-12-07T06:56:04;9.77;;;9.00;;
2049;SDS011;8478;49.208;8.806;2022-12-07T06:58:30;9.60;;;8.80;;
2049;SDS011;8478;49.208;8.806;2022-12-07T07:00:56;10.33;;;9.43;;
2049;SDS011;8478;49.208;8.806;2022-12-07T07:03:22;10.00;;;9.23;;
2049;SDS011;8478;49.208;8.806;2022-12-07T07:05:48;11.90;;;10.90;;
2049;SDS011;8478;49.208;8.806;2022-12-07T07:08:14;10.50;;;9.50;;
2049;SDS011;8478;49.208;8.806;2022-12-07T07:10:39;10.40;;;9.60;;
2049;SDS011;8478;49.208;8.806;2022-12-07T07:13:05;13.17;;;11.73;;
2049;SDS011;8478;49.208;8.806;2022-12-07T07:15:31;11.60;;;10.50;;
2049;SDS011;8478;49.208;8.806;2022-12-07T07:17:57;11.53;;;10.53;;
2049;SDS011;8478;49.208;8.806;2022-12-07T07:20:23;10.60;;;9.80;;
2049;SDS011;8478;49.208;8.806;2022-12-07T07:22:49;10.67;;;9.80;;
2049;SDS011;8478;49.208;8.806;2022-12-07T07:25:15;10.93;;;10.03;;
2049;SDS011;8478;49.208;8.806;2022-12-07T07:27:41;11.53;;;10.63;;
2049;SDS011;8478;49.208;8.806;2022-12-07T07:30:06;9.90;;;9.10;;
2049;SDS011;8478;49.208;8.806;2022-12-07T07:32:33;13.13;;;10.87;;
2049;SDS011;8478;49.208;8.806;2022-12-07T07:34:58;10.77;;;9.77;;
2049;SDS011;8478;49.208;8.806;2022-12-07T07:37:24;10.57;;;9.57;;
2049;SDS011;8478;49.208;8.806;2022-12-07T07:39:50;9.77;;;8.93;;
2049;SDS011;8478;49.208;8.806;2022-12-07T07:42:16;9.60;;;8.70;;
2049;SDS011;8478;49.208;8.806;2022-12-07T07:44:42;10.40;;;9.60;;
2049;SDS011;8478;49.208;8.806;2022-12-07T07:47:07;11.87;;;10.83;;
2049;SDS011;8478;49.208;8.806;2022-12-07T07:49:33;10.77;;;9.83;;
2049;SDS011;8478;49.208;8.806;2022-12-07T07:51:59;12.60;;;11.50;;
2049;SDS011;8478;49.208;8.806;2022-12-07T07:54:24;12.80;;;11.60;;
2049;SDS011;8478;49.208;8.806;2022-12-07T07:56:50;13.70;;;12.50;;
2049;SDS011;8478;49.208;8.806;2022-12-07T07:59:17;12.63;;;11.63;;
2049;SDS011;8478;49.208;8.806;2022-12-07T08:01:42;14.40;;;13.10;;
2049;SDS011;8478;49.208;8.806;2022-12-07T08:04:08;14.33;;;13.03;;
2049;SDS011;8478;49.208;8.806;2022-12-07T08:06:34;14.00;;;12.80;;
2049;SDS011;8478;49.208;8.806;2022-12-07T08:09:00;13.37;;;12.20;;
2049;SDS011;8478;49.208;8.806;2022-12-07T08:11:25;14.17;;;12.97;;
2049;SDS011;8478;49.208;8.806;2022-12-07T08:13:51;14.00;;;12.60;;
2049;SDS011;8478;49.208;8.806;2022-12-07T08:16:16;14.13;;;12.77;;
2049;SDS011;8478;49.208;8.806;2022-12-07T08:18:42;13.70;;;12.50;;
2049;SDS011;8478;49.208;8.806;2022-12-07T08:21:09;12.40;;;11.40;;
2049;SDS011;8478;49.208;8.806;2022-12-07T08:23:37;12.17;;;11.07;;
2049;SDS011;8478;49.208;8.806;2022-12-07T08:26:04;13.27;;;12.07;;
2049;SDS011;8478;49.208;8.806;2022-12-07T08:28:31;12.70;;;11.60;;
2049;SDS011;8478;49.208;8.806;2022-12-07T08:31:05;12.63;;;11.57;;
2049;SDS011;8478;49.208;8.806;2022-12-07T08:33:34;11.80;;;10.80;;
2049;SDS011;8478;49.208;8.806;2022-12-07T08:36:01;11.60;;;10.60;;
2049;SDS011;8478;49.208;8.806;2022-12-07T08:38:28;12.10;;;10.90;;
2049;SDS011;8478;49.208;8.806;2022-12-07T08:40:54;11.37;;;10.53;;
2049;SDS011;8478;49.208;8.806;2022-12-07T08:43:21;11.23;;;10.30;;
2049;SDS011;8478;49.208;8.806;2022-12-07T08:45:48;11.50;;;10.60;;
2049;SDS011;8478;49.208;8.806;2022-12-07T08:48:39;11.10;;;10.20;;
2049;SDS011;8478;49.208;8.806;2022-12-07T08:51:09;11.17;;;10.20;;
2049;SDS011;8478;49.208;8.806;2022-12-07T08:53:36;11.10;;;10.10;;
2049;SDS011;8478;49.208;8.806;2022-12-07T08:56:03;10.90;;;10.00;;
2049;SDS011;8478;49.208;8.806;2022-12-07T08:58:29;10.70;;;9.80;;
2049;SDS011;8478;49.208;8.806;2022-12-07T09:00:55;11.80;;;10.80;;
2049;SDS011;8478;49.208;8.806;2022-12-07T09:03:21;11.43;;;10.43;;
2049;SDS011;8478;49.208;8.806;2022-12-07T09:05:47;11.37;;;9.97;;
2049;SDS011;8478;49.208;8.806;2022-12-07T09:08:12;12.70;;;11.60;;
2049;SDS011;8478;49.208;8.806;2022-12-07T09:10:38;10.90;;;10.00;;
2049;SDS011;8478;49.208;8.806;2022-12-07T09:13:04;10.50;;;9.70;;
2049;SDS011;8478;49.208;8.806;2022-12-07T09:15:29;10.53;;;9.43;;
2049;SDS011;8478;49.208;8.806;2022-12-07T09:17:56;13.23;;;12.03;;
2049;SDS011;8478;49.208;8.806;2022-12-07T09:20:22;11.07;;;10.17;;
2049;SDS011;8478;49.208;8.806;2022-12-07T09:22:48;12.03;;;10.90;;
2049;SDS011;8478;49.208;8.806;2022-12-07T09:25:13;12.93;;;11.83;;
2049;SDS011;8478;49.208;8.806;2022-12-07T09:27:39;11.17;;;10.17;;
2049;SDS011;8478;49.208;8.806;2022-12-07T09:30:05;10.40;;;9.50;;
2049;SDS011;8478;49.208;8.806;2022-12-07T09:32:31;11.90;;;10.80;;
2049;SDS011;8478;49.208;8.806;2022-12-07T09:34:57;11.70;;;10.70;;
2049;SDS011;8478;49.208;8.806;2022-12-07T09:37:23;11.23;;;10.13;;
2049;SDS011;8478;49.208;8.806;2022-12-07T09:39:48;11.87;;;10.67;;
2049;SDS011;8478;49.208;8.806;2022-12-07T09:42:33;10.80;;;9.80;;
2049;SDS011;8478;49.208;8.806;2022-12-07T09:44:59;10.50;;;9.50;;
2049;SDS011;8478;49.208;8.806;2022-12-07T09:47:26;11.60;;;10.60;;
2049;SDS011;8478;49.208;8.806;2022-12-07T09:49:55;12.60;;;11.30;;
2049;SDS011;8478;49.208;8.806;2022-12-07T09:52:28;11.80;;;10.60;;
2049;SDS011;8478;49.208;8.806;2022-12-07T09:54:54;11.03;;;10.03;;
2049;SDS011;8478;49.208;8.806;2022-12-07T09:57:22;10.10;;;9.30;;
2049;SDS011;8478;49.208;8.806;2022-12-07T09:59:59;10.97;;;9.87;;
2049;SDS011;8478;49.208;8.806;2022-12-07T10:02:44;10.83;;;9.83;;
2049;SDS011;8478;49.208;8.806;2022-12-07T10:05:20;11.10;;;10.00;;
2049;SDS011;8478;49.208;8.806;2022-12-07T10:07:55;10.90;;;9.70;;
2049;SDS011;8478;49.208;8.806;2022-12-07T10:10:29;11.23;;;10.23;;
2049;SDS011;8478;49.208;8.806;2022-12-07T10:13:00;11.60;;;10.40;;
2049;SDS011;8478;49.208;8.806;2022-12-07T10:18:36;11.23;;;10.20;;
2049;SDS011;8478;49.208;8.806;2022-12-07T10:21:11;12.07;;;10.97;;
2049;SDS011;8478;49.208;8.806;2022-12-07T10:23:40;11.30;;;10.30;;
2049;SDS011;8478;49.208;8.806;2022-12-07T10:31:42;11.27;;;10.30;;
2049;SDS011;8478;49.208;8.806;2022-12-07T10:34:23;10.17;;;9.37;;
2049;SDS011;8478;49.208;8.806;2022-12-07T10:42:49;10.50;;;9.50;;
2049;SDS011;8478;49.208;8.806;2022-12-07T11:06:34;10.07;;;9.17;;
2049;SDS011;8478;49.208;8.806;2022-12-07T11:11:55;11.30;;;10.30;;
2049;SDS011;8478;49.208;8.806;2022-12-07T11:17:33;10.37;;;9.57;;
2049;SDS011;8478;49.208;8.806;2022-12-07T11:22:51;11.10;;;10.03;;
2049;SDS011;8478;49.208;8.806;2022-12-07T11:33:16;10.87;;;9.87;;
2049;SDS011;8478;49.208;8.806;2022-12-07T11:35:53;10.87;;;9.97;;
2049;SDS011;8478;49.208;8.806;2022-12-07T11:38:37;10.27;;;9.33;;
2049;SDS011;8478;49.208;8.806;2022-12-07T11:41:10;10.63;;;9.63;;
2049;SDS011;8478;49.208;8.806;2022-12-07T11:43:58;10.83;;;9.77;;
2049;SDS011;8478;49.208;8.806;2022-12-07T11:46:49;10.40;;;9.50;;
2049;SDS011;8478;49.208;8.806;2022-12-07T11:49:21;10.43;;;9.53;;
2049;SDS011;8478;49.208;8.806;2022-12-07T11:52:06;12.10;;;10.40;;
2049;SDS011;8478;49.208;8.806;2022-12-07T11:54:52;10.37;;;9.47;;
2049;SDS011;8478;49.208;8.806;2022-12-07T11:57:27;9.40;;;8.70;;
2049;SDS011;8478;49.208;8.806;2022-12-07T12:00:04;9.90;;;8.93;;
2049;SDS011;8478;49.208;8.806;2022-12-07T12:02:33;10.50;;;9.60;;
2049;SDS011;8478;49.208;8.806;2022-12-07T12:07:42;10.87;;;9.87;;
2049;SDS011;8478;49.208;8.806;2022-12-07T12:21:12;10.57;;;9.67;;
2049;SDS011;8478;49.208;8.806;2022-12-07T12:23:48;9.57;;;8.43;;
2049;SDS011;8478;49.208;8.806;2022-12-07T12:26:31;10.80;;;9.70;;
2049;SDS011;8478;49.208;8.806;2022-12-07T12:29:17;10.40;;;9.40;;
2049;SDS011;8478;49.208;8.806;2022-12-07T12:32:03;11.37;;;10.30;;
2049;SDS011;8478;49.208;8.806;2022-12-07T12:42:44;9.70;;;8.77;;
2049;SDS011;8478;49.208;8.806;2022-12-07T12:45:30;11.87;;;10.77;;
2049;SDS011;8478;49.208;8.806;2022-12-07T12:47:57;10.97;;;9.97;;
2049;SDS011;8478;49.208;8.806;2022-12-07T12:53:03;10.10;;;9.20;;
2049;SDS011;8478;49.208;8.806;2022-12-07T12:55:46;10.97;;;10.07;;
2049;SDS011;8478;49.208;8.806;2022-12-07T12:58:44;11.27;;;10.27;;
2049;SDS011;8478;49.208;8.806;2022-12-07T13:03:55;10.97;;;9.70;;
2049;SDS011;8478;49.208;8.806;2022-12-07T13:08:51;10.70;;;9.80;;
2049;SDS011;8478;49.208;8.806;2022-12-07T13:11:32;10.47;;;9.50;;
2049;SDS011;8478;49.208;8.806;2022-12-07T13:24:56;11.07;;;10.03;;
2049;SDS011;8478;49.208;8.806;2022-12-07T13:27:28;11.90;;;10.70;;
2049;SDS011;8478;49.208;8.806;2022-12-07T13:29:56;10.20;;;9.30;;
2049;SDS011;8478;49.208;8.806;2022-12-07T13:32:26;10.77;;;9.77;;
2049;SDS011;8478;49.208;8.806;2022-12-07T13:34:53;10.80;;;9.70;;
2049;SDS011;8478;49.208;8.806;2022-12-07T13:37:32;11.13;;;10.17;;
2049;SDS011;8478;49.208;8.806;2022-12-07T13:39:59;10.87;;;9.77;;
2049;SDS011;8478;49.208;8.806;2022-12-07T13:42:27;10.27;;;9.37;;
2049;SDS011;8478;49.208;8.806;2022-12-07T13:45:01;10.77;;;9.67;;
2049;SDS011;8478;49.208;8.806;2022-12-07T13:48:08;9.40;;;8.53;;
2049;SDS011;8478;49.208;8.806;2022-12-07T13:50:56;10.67;;;9.67;;
2049;SDS011;8478;49.208;8.806;2022-12-07T13:53:23;10.07;;;9.20;;
2049;SDS011;8478;49.208;8.806;2022-12-07T13:55:49;11.20;;;10.20;;
2049;SDS011;8478;49.208;8.806;2022-12-07T13:58:15;10.50;;;9.60;;
2049;SDS011;8478;49.208;8.806;2022-12-07T14:00:42;11.70;;;10.70;;
2049;SDS011;8478;49.208;8.806;2022-12-07T14:05:37;11.23;;;10.13;;
2049;SDS011;8478;49.208;8.806;2022-12-07T14:08:05;10.50;;;9.60;;
2049;SDS011;8478;49.208;8.806;2022-12-07T14:15:57;11.10;;;10.00;;
2049;SDS011;8478;49.208;8.806;2022-12-07T14:18:26;11.53;;;10.53;;
2049;SDS011;8478;49.208;8.806;2022-12-07T14:21:06;10.47;;;9.50;;
2049;SDS011;8478;49.208;8.806;2022-12-07T14:23:35;11.30;;;10.30;;
2049;SDS011;8478;49.208;8.806;2022-12-07T14:26:20;11.40;;;10.30;;
2049;SDS011;8478;49.208;8.806;2022-12-07T14:28:46;10.80;;;9.77;;
2049;SDS011;8478;49.208;8.806;2022-12-07T14:31:13;10.83;;;9.83;;
2049;SDS011;8478;49.208;8.806;2022-12-07T14:33:41;10.80;;;9.80;;
2049;SDS011;8478;49.208;8.806;2022-12-07T14:36:10;9.70;;;8.90;;
2049;SDS011;8478;49.208;8.806;2022-12-07T14:38:37;10.17;;;9.20;;
2049;SDS011;8478;49.208;8.806;2022-12-07T14:41:04;10.73;;;9.70;;
2049;SDS011;8478;49.208;8.806;2022-12-07T14:44:00;10.30;;;9.50;;
2049;SDS011;8478;49.208;8.806;2022-12-07T14:46:25;12.00;;;10.90;;
2049;SDS011;8478;49.208;8.806;2022-12-07T14:48:51;11.00;;;10.00;;
2049;SDS011;8478;49.208;8.806;2022-12-07T14:51:17;12.03;;;10.80;;
2049;SDS011;8478;49.208;8.806;2022-12-07T14:53:44;10.23;;;9.37;;
2049;SDS011;8478;49.208;8.806;2022-12-07T14:56:14;11.40;;;10.30;;
2049;SDS011;8478;49.208;8.806;2022-12-07T14:58:40;11.43;;;10.43;;
2049;SDS011;8478;49.208;8.806;2022-12-07T15:01:06;12.10;;;11.00;;
2049;SDS011;8478;49.208;8.806;2022-12-07T15:03:31;10.40;;;9.50;;
2049;SDS011;8478;49.208;8.806;2022-12-07T15:05:59;12.03;;;10.83;;
2049;SDS011;8478;49.208;8.806;2022-12-07T15:08:25;11.30;;;10.20;;
2049;SDS011;8478;49.208;8.806;2022-12-07T15:10:51;12.17;;;10.97;;
2049;SDS011;8478;49.208;8.806;2022-12-07T15:13:17;10.57;;;9.57;;
2049;SDS011;8478;49.208;8.806;2022-12-07T15:16:01;11.80;;;10.67;;
2049;SDS011;8478;49.208;8.806;2022-12-07T15:18:27;12.53;;;11.43;;
2049;SDS011;8478;49.208;8.806;2022-12-07T15:20:53;10.90;;;9.90;;
2049;SDS011;8478;49.208;8.806;2022-12-07T15:23:19;11.63;;;10.53;;
2049;SDS011;8478;49.208;8.806;2022-12-07T15:25:45;11.00;;;10.10;;
2049;SDS011;8478;49.208;8.806;2022-12-07T15:28:13;11.83;;;10.50;;
2049;SDS011;8478;49.208;8.806;2022-12-07T15:30:40;12.70;;;11.60;;
2049;SDS011;8478;49.208;8.806;2022-12-07T15:33:10;10.47;;;9.53;;
2049;SDS011;8478;49.208;8.806;2022-12-07T15:35:40;11.27;;;10.20;;
2049;SDS011;8478;49.208;8.806;2022-12-07T15:38:06;11.50;;;10.33;;
2049;SDS011;8478;49.208;8.806;2022-12-07T15:40:32;12.27;;;11.10;;
2049;SDS011;8478;49.208;8.806;2022-12-07T15:42:57;11.90;;;10.90;;
2049;SDS011;8478;49.208;8.806;2022-12-07T15:45:23;11.83;;;10.73;;
2049;SDS011;8478;49.208;8.806;2022-12-07T15:47:49;12.23;;;11.13;;
2049;SDS011;8478;49.208;8.806;2022-12-07T15:50:15;12.77;;;10.53;;
2049;SDS011;8478;49.208;8.806;2022-12-07T15:52:41;10.77;;;9.73;;
2049;SDS011;8478;49.208;8.806;2022-12-07T15:55:07;11.80;;;10.70;;
2049;SDS011;8478;49.208;8.806;2022-12-07T15:57:35;10.70;;;9.80;;
2049;SDS011;8478;49.208;8.806;2022-12-07T16:00:03;12.30;;;11.13;;
2049;SDS011;8478;49.208;8.806;2022-12-07T16:02:29;11.77;;;10.57;;
2049;SDS011;8478;49.208;8.806;2022-12-07T16:04:55;12.57;;;11.27;;
2049;SDS011;8478;49.208;8.806;2022-12-07T16:07:21;11.07;;;10.07;;
2049;SDS011;8478;49.208;8.806;2022-12-07T16:09:47;12.17;;;11.03;;
2049;SDS011;8478;49.208;8.806;2022-12-07T16:12:14;11.80;;;10.80;;
2049;SDS011;8478;49.208;8.806;2022-12-07T16:14:40;12.40;;;11.10;;
2049;SDS011;8478;49.208;8.806;2022-12-07T16:17:07;11.80;;;10.80;;
2049;SDS011;8478;49.208;8.806;2022-12-07T16:19:33;12.90;;;11.60;;
2049;SDS011;8478;49.208;8.806;2022-12-07T16:21:59;13.57;;;12.37;;
2049;SDS011;8478;49.208;8.806;2022-12-07T16:24:25;12.80;;;11.63;;
2049;SDS011;8478;49.208;8.806;2022-12-07T16:26:51;12.70;;;11.50;;
2049;SDS011;8478;49.208;8.806;2022-12-07T16:29:18;12.67;;;11.43;;
2049;SDS011;8478;49.208;8.806;2022-12-07T16:31:45;12.60;;;11.40;;
2049;SDS011;8478;49.208;8.806;2022-12-07T16:34:11;11.37;;;10.27;;
2049;SDS011;8478;49.208;8.806;2022-12-07T16:36:37;11.57;;;10.60;;
2049;SDS011;8478;49.208;8.806;2022-12-07T16:39:03;12.33;;;10.70;;
2049;SDS011;8478;49.208;8.806;2022-12-07T16:41:29;12.00;;;10.80;;
2049;SDS011;8478;49.208;8.806;2022-12-07T16:43:55;14.10;;;12.77;;
2049;SDS011;8478;49.208;8.806;2022-12-07T16:46:20;12.50;;;11.30;;
2049;SDS011;8478;49.208;8.806;2022-12-07T16:48:46;13.53;;;12.13;;
2049;SDS011;8478;49.208;8.806;2022-12-07T16:51:12;15.47;;;14.17;;
2049;SDS011;8478;49.208;8.806;2022-12-07T16:53:39;14.00;;;12.70;;
2049;SDS011;8478;49.208;8.806;2022-12-07T16:56:13;14.70;;;13.40;;
2049;SDS011;8478;49.208;8.806;2022-12-07T16:58:41;14.80;;;13.40;;
2049;SDS011;8478;49.208;8.806;2022-12-07T17:01:08;14.80;;;13.50;;
2049;SDS011;8478;49.208;8.806;2022-12-07T17:03:38;14.50;;;13.27;;
2049;SDS011;8478;49.208;8.806;2022-12-07T17:06:10;13.30;;;12.00;;
2049;SDS011;8478;49.208;8.806;2022-12-07T17:08:38;13.10;;;11.90;;
2049;SDS011;8478;49.208;8.806;2022-12-07T17:11:08;16.70;;;15.30;;
2049;SDS011;8478;49.208;8.806;2022-12-07T17:13:38;15.70;;;14.40;;
2049;SDS011;8478;49.208;8.806;2022-12-07T17:16:22;14.50;;;13.30;;
2049;SDS011;8478;49.208;8.806;2022-12-07T17:18:48;14.90;;;13.67;;
2049;SDS011;8478;49.208;8.806;2022-12-07T17:21:13;13.80;;;12.60;;
2049;SDS011;8478;49.208;8.806;2022-12-07T17:23:39;14.73;;;13.60;;
2049;SDS011;8478;49.208;8.806;2022-12-07T17:26:06;14.13;;;12.93;;
2049;SDS011;8478;49.208;8.806;2022-12-07T17:28:33;13.40;;;12.20;;